Time;durP1;ratioP1;P1;durP2;ratioP2;P2;SDS_P1;SDS_P2;PMS_P1;PMS_P2;Temp;Humidity;BMP_temperature;BMP_pressure;BME280_temperature;BME280_humidity;BME280_pressure;Samples;Min_cycle;Max_cycle;Signal;HPM_P1;HPM_P2
2021/11/17 02:28:17;;;;;;;17.23;11.00;;;;;;;5.17;77.80;101495.38;5040318;28;20770;-69
2021/11/17 02:30:55;;;;;;;15.97;10.53;;;;;;;5.13;77.67;101483.09;5040288;28;20440;-69
2021/11/17 02:33:27;;;;;;;15.30;9.90;;;;;;;5.31;78.33;101480.44;5040205;28;20383;-67
2021/11/17 02:36:29;;;;;;;16.63;11.30;;;;;;;5.31;77.79;101476.16;5022664;28;20433;-67
2021/11/17 02:39:28;;;;;;;18.30;10.90;;;;;;;5.67;77.61;101475.03;5022551;28;20950;-67
2021/11/17 02:42:12;;;;;;;12.50;8.37;;;;;;;5.15;77.35;101478.91;5002462;28;20436;-67
2021/11/17 02:44:43;;;;;;;15.07;9.27;;;;;;;5.22;77.43;101471.47;5023018;28;20840;-69
2021/11/17 02:47:47;;;;;;;14.77;9.17;;;;;;;5.12;78.23;101473.59;5039541;28;20509;-68
2021/11/17 02:50:12;;;;;;;15.87;9.37;;;;;;;4.97;78.53;101458.31;5037603;28;20405;-67
2021/11/17 02:52:55;;;;;;;14.20;9.53;;;;;;;5.46;77.69;101460.41;5048014;28;20560;-66
2021/11/17 02:55:52;;;;;;;14.80;9.43;;;;;;;5.55;76.64;101460.78;5059670;28;20177;-66
2021/11/17 02:58:49;;;;;;;15.17;9.77;;;;;;;5.38;77.36;101447.13;5059367;28;20396;-67
2021/11/17 03:01:33;;;;;;;16.70;10.10;;;;;;;5.47;78.46;101445.78;5059367;28;20459;-68
2021/11/17 03:04:08;;;;;;;15.50;10.50;;;;;;;5.45;78.91;101443.13;5059221;28;20836;-68
2021/11/17 03:06:36;;;;;;;14.40;9.03;;;;;;;5.12;78.79;101450.34;5059280;28;20390;-67
2021/11/17 03:09:20;;;;;;;15.43;9.70;;;;;;;5.12;79.13;101440.88;5058587;28;20801;-66
2021/11/17 03:11:51;;;;;;;14.83;9.13;;;;;;;5.04;78.61;101434.50;5059070;28;20383;-68
2021/11/17 03:14:30;;;;;;;18.73;10.10;;;;;;;6.63;85.35;101421.84;5058933;28;20398;-67
2021/11/17 03:17:27;;;;;;;12.07;8.77;;;;;;;8.19;71.44;101422.75;5062767;28;20404;-64
2021/11/17 03:20:04;;;;;;;14.57;9.37;;;;;;;5.92;75.32;101435.53;5058994;28;20451;-64
2021/11/17 03:22:52;;;;;;;15.30;9.17;;;;;;;5.95;76.09;101425.28;5058922;28;20660;-63
2021/11/17 03:25:48;;;;;;;14.87;8.90;;;;;;;5.54;78.67;101429.69;5058903;28;20450;-63
2021/11/17 03:29:01;;;;;;;15.30;10.33;;;;;;;5.64;77.23;101430.94;5058999;28;20447;-63
2021/11/17 03:31:41;;;;;;;15.00;8.83;;;;;;;5.98;76.67;101421.97;4998082;28;20443;-65
2021/11/17 03:34:32;;;;;;;14.67;9.40;;;;;;;5.86;76.41;101420.66;5058059;28;20411;-64
2021/11/17 03:37:10;;;;;;;17.20;9.93;;;;;;;5.84;76.41;101418.81;5058697;28;20498;-63
2021/11/17 03:39:54;;;;;;;13.00;8.50;;;;;;;5.77;77.37;101420.28;5058761;28;20471;-63
2021/11/17 03:42:38;;;;;;;14.47;9.50;;;;;;;5.97;76.32;101412.44;5058413;28;20404;-65
2021/11/17 03:45:29;;;;;;;19.43;9.40;;;;;;;5.92;78.23;101414.84;5058510;28;20420;-64
2021/11/17 03:48:40;;;;;;;15.23;9.93;;;;;;;5.78;77.51;101418.56;5058480;28;20447;-64
2021/11/17 03:51:36;;;;;;;15.10;9.70;;;;;;;5.94;76.60;101415.78;5052955;28;20650;-63
2021/11/17 03:54:26;;;;;;;17.17;10.00;;;;;;;5.69;77.92;101416.50;5023378;28;20411;-64
2021/11/17 03:57:00;;;;;;;15.97;10.50;;;;;;;5.61;77.74;101423.94;5038340;28;20397;-63
2021/11/17 03:59:43;;;;;;;16.37;10.40;;;;;;;5.70;78.49;101419.16;5038215;28;20551;-63
2021/11/17 04:02:08;;;;;;;15.43;9.57;;;;;;;5.59;78.13;101425.59;5038095;28;20420;-63
2021/11/17 04:04:42;;;;;;;17.00;9.90;;;;;;;5.64;78.08;101423.19;5038181;28;20757;-63
2021/11/17 04:07:07;;;;;;;19.63;10.93;;;;;;;5.65;78.40;101422.38;5038037;28;20167;-63
2021/11/17 04:10:12;;;;;;;16.60;10.33;;;;;;;5.73;77.28;101416.69;5038418;28;20408;-64
2021/11/17 04:12:44;;;;;;;16.07;9.70;;;;;;;5.85;77.82;101424.06;4997705;28;20493;-64
2021/11/17 04:15:25;;;;;;;14.90;10.40;;;;;;;6.05;76.67;101422.28;5038225;28;20401;-64
2021/11/17 04:17:54;;;;;;;22.23;11.50;;;;;;;5.80;77.46;101428.16;5038074;28;20408;-64
2021/11/17 04:20:54;;;;;;;18.20;10.00;;;;;;;5.98;77.15;101421.97;5037168;28;20503;-64
2021/11/17 04:23:36;;;;;;;19.00;11.50;;;;;;;5.85;77.27;101412.84;5037877;28;20424;-68
2021/11/17 04:26:32;;;;;;;20.37;11.60;;;;;;;5.79;77.93;101420.34;5037858;28;20391;-63
2021/11/17 04:29:11;;;;;;;18.43;11.83;;;;;;;5.69;78.04;101409.63;5037948;28;20441;-64
2021/11/17 04:31:56;;;;;;;19.87;12.60;;;;;;;5.56;78.47;101412.53;5037867;28;20412;-63
2021/11/17 04:34:49;;;;;;;19.40;12.03;;;;;;;5.64;78.60;101411.16;5037950;28;20683;-64
2021/11/17 04:37:52;;;;;;;21.07;12.77;;;;;;;5.48;79.74;101419.09;5038073;28;20702;-64
2021/11/17 04:40:45;;;;;;;21.57;12.77;;;;;;;5.56;80.16;101405.66;5037704;28;20471;-63
2021/11/17 04:43:36;;;;;;;21.07;12.77;;;;;;;5.60;79.60;101393.72;5037749;28;20710;-63
2021/11/17 04:46:38;;;;;;;19.47;11.83;;;;;;;5.75;78.20;101398.66;5037751;28;20405;-63
2021/11/17 04:49:39;;;;;;;18.70;11.70;;;;;;;5.98;77.65;101403.88;5037978;28;20413;-64
2021/11/17 04:52:55;;;;;;;21.10;11.53;;;;;;;5.59;79.01;101404.91;5037530;28;20439;-63
2021/11/17 04:55:42;;;;;;;26.10;15.47;;;;;;;5.86;77.81;101399.09;4939259;29;20476;-63
2021/11/17 04:58:28;;;;;;;18.43;12.03;;;;;;;5.66;78.20;101399.16;5037969;28;20425;-64
2021/11/17 05:01:08;;;;;;;20.10;12.03;;;;;;;5.82;nan;101404.94;5037384;28;20530;-64
2021/11/17 05:03:48;;;;;;;21.20;11.97;;;;;;;5.84;77.73;101409.34;5037903;28;20507;-63
2021/11/17 05:06:26;;;;;;;18.50;12.50;;;;;;;5.77;78.89;101411.66;5037637;28;20403;-63
2021/11/17 05:08:57;;;;;;;21.33;13.50;;;;;;;5.97;78.14;101397.78;5037904;28;20842;-63
2021/11/17 05:11:50;;;;;;;22.23;13.07;;;;;;;5.85;78.06;101403.34;5037634;28;20413;-63
2021/11/17 05:14:43;;;;;;;20.73;12.23;;;;;;;5.81;78.65;101401.47;5037542;28;20409;-65
2021/11/17 05:17:33;;;;;;;20.80;13.10;;;;;;;5.79;78.61;101400.53;5037977;28;20420;-63
2021/11/17 05:20:14;;;;;;;17.10;12.83;;;;;;;5.67;79.60;101398.34;5020195;28;20456;-64
2021/11/17 05:22:51;;;;;;;20.27;12.73;;;;;;;5.62;78.98;101391.22;5037574;28;20413;-64
2021/11/17 05:26:01;;;;;;;20.63;13.90;;;;;;;5.50;79.65;101396.78;5037687;28;20404;-64
2021/11/17 05:28:35;;;;;;;20.50;12.50;;;;;;;5.86;77.98;101393.91;5037633;28;20417;-65
2021/11/17 05:31:12;;;;;;;19.40;12.30;;;;;;;5.65;79.15;101397.38;5038273;28;20741;-64
2021/11/17 05:33:53;;;;;;;19.20;11.77;;;;;;;5.68;78.46;101400.13;5041368;28;20383;-63
2021/11/17 05:36:25;;;;;;;22.40;12.80;;;;;;;5.71;77.80;101394.16;5041278;28;20693;-63
2021/11/17 05:39:21;;;;;;;22.10;13.07;;;;;;;5.60;78.96;101401.47;5040884;28;20470;-64
2021/11/17 05:42:07;;;;;;;20.30;13.07;;;;;;;5.55;79.41;101398.72;5040718;28;20448;-64
2021/11/17 05:44:51;;;;;;;24.47;15.10;;;;;;;5.70;79.28;101406.22;5040967;28;20415;-65
2021/11/17 05:47:31;;;;;;;24.53;14.83;;;;;;;5.40;79.79;101406.72;5040722;28;20417;-63
2021/11/17 05:50:21;;;;;;;22.83;13.93;;;;;;;5.87;77.80;101398.22;5040685;28;20412;-63
2021/11/17 05:53:21;;;;;;;22.53;14.53;;;;;;;5.76;78.30;101395.22;5051757;28;20438;-63
2021/11/17 05:56:07;;;;;;;23.90;14.97;;;;;;;5.63;78.90;101401.63;5060762;28;20416;-64
2021/11/17 05:58:51;;;;;;;25.00;14.53;;;;;;;5.43;80.11;101397.34;5060704;28;20428;-63
2021/11/17 06:01:55;;;;;;;24.30;14.97;;;;;;;5.81;78.45;101385.06;5059842;28;20431;-63
2021/11/17 06:04:20;;;;;;;23.30;14.40;;;;;;;5.79;78.15;101389.28;5060323;28;20888;-63
2021/11/17 06:06:46;;;;;;;25.07;16.80;;;;;;;5.73;79.04;101393.41;5060387;28;20415;-64
2021/11/17 06:09:11;;;;;;;30.33;17.90;;;;;;;6.15;77.81;101395.03;5060482;28;20169;-64
2021/11/17 06:11:41;;;;;;;25.63;14.83;;;;;;;5.83;78.85;101399.84;5060232;28;20166;-64
2021/11/17 06:14:12;;;;;;;26.40;15.47;;;;;;;5.84;78.62;101392.94;5060818;28;20166;-64
2021/11/17 06:16:48;;;;;;;27.60;16.80;;;;;;;5.63;79.16;101380.94;5059482;28;20717;-64
2021/11/17 06:19:16;;;;;;;28.80;16.60;;;;;;;6.00;78.30;101382.41;5060085;28;20480;-63
2021/11/17 06:21:42;;;;;;;31.20;17.07;;;;;;;6.16;77.55;101394.22;5059868;28;20664;-64
2021/11/17 06:24:10;;;;;;;29.20;17.70;;;;;;;5.62;78.57;101389.50;5059967;28;20474;-65
2021/11/17 06:26:39;;;;;;;25.37;16.03;;;;;;;6.03;78.71;101392.00;5059833;28;20215;-63
2021/11/17 06:29:08;;;;;;;25.87;16.90;;;;;;;5.95;78.50;101390.78;5059307;28;20387;-64
2021/11/17 06:31:36;;;;;;;26.03;16.87;;;;;;;6.14;77.75;101374.28;5059039;28;20432;-63
2021/11/17 06:34:22;;;;;;;29.20;17.20;;;;;;;5.96;78.40;101370.13;5059342;28;20422;-63
2021/11/17 06:36:47;;;;;;;25.63;17.10;;;;;;;5.97;78.03;101364.13;5059950;28;20682;-64
2021/11/17 06:39:12;;;;;;;29.80;17.53;;;;;;;6.19;76.97;101362.41;5059675;28;20451;-64
2021/11/17 06:41:38;;;;;;;29.30;17.50;;;;;;;6.01;77.54;101357.41;5059591;28;20527;-64
2021/11/17 06:44:04;;;;;;;31.30;17.07;;;;;;;5.83;78.94;101370.47;5059294;28;20184;-64
2021/11/17 06:46:29;;;;;;;29.47;17.90;;;;;;;6.06;78.76;101359.34;5059777;28;20383;-64
2021/11/17 06:48:54;;;;;;;27.53;17.80;;;;;;;6.09;77.77;101345.66;5059650;28;20281;-64
2021/11/17 06:51:19;;;;;;;31.47;20.03;;;;;;;6.31;77.52;101347.31;5055604;28;20364;-64
2021/11/17 06:53:45;;;;;;;27.93;18.67;;;;;;;6.30;76.99;101334.31;5039401;28;20292;-64
2021/11/17 06:56:10;;;;;;;29.40;18.43;;;;;;;6.42;76.57;101344.25;5039436;28;20453;-64
2021/11/17 06:58:35;;;;;;;24.13;16.47;;;;;;;6.71;75.62;101350.44;5039320;28;20177;-64
2021/11/17 07:01:01;;;;;;;25.73;17.90;;;;;;;6.62;75.94;101356.19;5039085;28;20202;-64
2021/11/17 07:03:28;;;;;;;26.80;18.30;;;;;;;6.44;76.45;101348.66;5039984;28;20540;-64
2021/11/17 07:05:54;;;;;;;26.93;18.20;;;;;;;6.68;76.47;101347.75;5039376;28;20499;-64
2021/11/17 07:08:19;;;;;;;31.13;18.90;;;;;;;6.36;77.26;101350.06;5039222;28;20436;-64
2021/11/17 07:10:44;;;;;;;25.77;17.23;;;;;;;6.71;76.30;101327.13;5039679;28;20158;-64
2021/11/17 07:13:10;;;;;;;28.07;17.20;;;;;;;6.89;76.12;101335.56;5039049;28;20181;-63
2021/11/17 07:15:37;;;;;;;28.50;17.67;;;;;;;6.50;76.88;101348.00;5039271;28;20170;-64
2021/11/17 07:18:03;;;;;;;31.93;19.27;;;;;;;6.21;77.83;101368.50;5039494;28;20409;-63
2021/11/17 07:20:30;;;;;;;29.60;17.23;;;;;;;6.12;80.10;101370.78;5038931;28;20491;-64
2021/11/17 07:22:55;;;;;;;30.80;18.30;;;;;;;6.35;78.64;101374.22;5021646;28;20523;-63
2021/11/17 07:25:22;;;;;;;29.23;17.07;;;;;;;6.04;78.71;101379.09;5039460;28;20448;-63
2021/11/17 07:27:49;;;;;;;28.73;17.40;;;;;;;6.31;78.11;101368.03;5038773;28;20170;-64
2021/11/17 07:30:20;;;;;;;30.10;17.87;;;;;;;6.39;77.74;101381.28;5038547;28;20403;-63
2021/11/17 07:32:45;;;;;;;29.97;17.90;;;;;;;6.52;77.53;101370.53;5039016;28;20379;-63
2021/11/17 07:35:10;;;;;;;28.10;17.30;;;;;;;6.64;77.07;101362.31;5038571;28;20470;-63
2021/11/17 07:37:36;;;;;;;27.23;18.20;;;;;;;6.49;78.13;101356.59;5038680;28;20434;-65
2021/11/17 07:40:03;;;;;;;28.83;17.47;;;;;;;5.98;79.09;101358.19;5039190;28;20182;-64
2021/11/17 07:42:28;;;;;;;31.67;17.63;;;;;;;6.35;78.47;101367.31;5038272;28;20261;-64
2021/11/17 07:44:54;;;;;;;29.60;18.80;;;;;;;6.52;78.28;101365.38;5038438;28;20514;-64
2021/11/17 07:47:19;;;;;;;28.67;17.40;;;;;;;6.68;77.36;101356.41;5038979;28;20208;-65
2021/11/17 07:49:45;;;;;;;28.13;17.93;;;;;;;6.65;77.54;101353.72;5038487;28;20162;-64
2021/11/17 07:52:10;;;;;;;30.30;18.40;;;;;;;6.74;77.15;101353.19;5038080;28;20271;-64
2021/11/17 07:54:36;;;;;;;26.00;17.53;;;;;;;6.46;78.16;101359.94;5038825;28;20254;-64
2021/11/17 07:57:03;;;;;;;64.87;25.53;;;;;;;6.56;79.42;101349.09;5038254;28;20245;-63
2021/11/17 07:59:29;;;;;;;29.43;17.60;;;;;;;6.97;76.65;101356.56;5021289;28;20198;-64
2021/11/17 08:01:59;;;;;;;32.33;18.60;;;;;;;7.00;76.81;101356.66;5038577;28;20421;-63
2021/11/17 08:04:24;;;;;;;29.70;16.53;;;;;;;6.89;76.94;101345.06;5021114;28;20428;-64
2021/11/17 08:06:51;;;;;;;27.70;17.90;;;;;;;6.16;78.94;101352.81;5021061;28;20838;-64
2021/11/17 08:09:17;;;;;;;26.37;17.00;;;;;;;6.71;79.84;101342.69;5022090;28;20154;-64
2021/11/17 08:11:43;;;;;;;25.73;17.60;;;;;;;6.90;77.24;101339.00;5038174;28;20409;-64
2021/11/17 08:14:08;;;;;;;26.40;17.20;;;;;;;7.03;76.86;101337.72;5038372;28;20682;-65
2021/11/17 08:16:35;;;;;;;30.30;17.23;;;;;;;6.82;77.73;101341.38;5038646;28;20162;-64
2021/11/17 08:19:00;;;;;;;28.67;16.83;;;;;;;6.82;78.80;101337.88;5038131;28;20254;-64
2021/11/17 08:21:25;;;;;;;27.93;16.40;;;;;;;7.10;77.16;101338.81;5038021;28;20866;-65
2021/11/17 08:23:51;;;;;;;25.07;16.37;;;;;;;7.31;75.82;101338.66;5038872;28;20166;-68
2021/11/17 08:26:18;;;;;;;26.53;15.63;;;;;;;7.19;76.31;101352.09;5035840;28;20181;-66
2021/11/17 08:28:44;;;;;;;27.30;15.90;;;;;;;6.86;77.75;101347.50;5037981;28;20189;-66
2021/11/17 08:31:11;;;;;;;27.13;17.03;;;;;;;6.88;78.11;101353.66;5038317;28;20894;-67
2021/11/17 08:33:37;;;;;;;26.47;15.67;;;;;;;6.31;79.33;101352.50;5038082;28;20547;-67
2021/11/17 08:36:03;;;;;;;24.60;14.80;;;;;;;6.43;80.06;101351.16;5038961;28;20438;-67
2021/11/17 08:38:29;;;;;;;26.73;17.57;;;;;;;6.40;79.59;101347.66;5023031;28;20170;-67
2021/11/17 08:40:58;;;;;;;25.70;13.30;;;;;;;8.88;82.40;101338.09;5023755;28;20468;-62
2021/11/17 08:43:23;;;;;;;22.53;12.63;;;;;;;12.48;69.30;101312.63;5041644;28;20421;-63
2021/11/17 08:45:49;;;;;;;16.03;11.87;;;;;;;13.74;63.39;101302.34;5040105;28;20783;-63
2021/11/17 08:48:15;;;;;;;20.10;14.47;;;;;;;8.76;69.13;101325.63;5021191;28;20170;-67
2021/11/17 08:50:41;;;;;;;23.73;16.10;;;;;;;7.56;74.58;101327.34;5038267;28;20193;-66
2021/11/17 08:53:08;;;;;;;25.80;15.27;;;;;;;7.04;77.77;101330.00;5037938;28;20457;-67
2021/11/17 08:55:35;;;;;;;23.87;14.57;;;;;;;6.83;78.86;101337.94;5038030;28;20162;-69
2021/11/17 08:58:01;;;;;;;22.43;14.33;;;;;;;6.99;78.46;101338.47;5018850;28;20542;-68
2021/11/17 09:00:28;;;;;;;24.10;15.60;;;;;;;6.78;78.85;101334.31;5037680;28;20518;-67
2021/11/17 09:02:54;;;;;;;25.87;15.13;;;;;;;6.91;79.85;101326.13;5037988;28;20459;-69
2021/11/17 09:05:25;;;;;;;24.63;16.03;;;;;;;7.07;78.73;101319.72;5037976;28;20501;-68
2021/11/17 09:07:51;;;;;;;23.70;15.80;;;;;;;6.85;79.40;101328.50;5041825;28;20395;-67
2021/11/17 09:10:21;;;;;;;25.50;16.37;;;;;;;6.97;79.76;101324.56;5041976;28;20417;-68
2021/11/17 09:12:48;;;;;;;30.00;16.37;;;;;;;7.20;79.35;101320.16;5041390;28;20205;-68
2021/11/17 09:15:14;;;;;;;32.00;25.10;;;;;;;6.84;79.91;101307.72;5042041;28;20691;-68
2021/11/17 09:17:40;;;;;;;24.30;16.27;;;;;;;7.13;79.90;101307.81;5042246;28;20407;-70
2021/11/17 09:20:07;;;;;;;24.40;15.80;;;;;;;7.02;80.19;101316.13;5041802;28;20820;-69
2021/11/17 09:22:32;;;;;;;30.13;17.33;;;;;;;7.06;80.19;101306.72;5041754;28;20178;-68
2021/11/17 09:24:57;;;;;;;25.57;16.17;;;;;;;6.96;80.28;101300.34;5041151;28;20848;-69
2021/11/17 09:27:23;;;;;;;26.37;16.27;;;;;;;7.21;80.03;101309.84;5041290;28;20175;-65
2021/11/17 09:29:48;;;;;;;35.83;19.53;;;;;;;7.05;80.67;101303.25;5041318;28;20464;-65
2021/11/17 09:32:13;;;;;;;25.27;15.47;;;;;;;7.61;78.71;101299.81;5041088;28;20459;-66
2021/11/17 09:34:39;;;;;;;25.83;17.37;;;;;;;7.68;78.24;101301.75;5041132;28;20181;-66
2021/11/17 09:37:07;;;;;;;29.97;17.50;;;;;;;7.57;78.05;101298.84;5041344;28;20167;-66
2021/11/17 09:39:33;;;;;;;37.00;20.30;;;;;;;7.24;80.15;101319.44;5040858;28;20440;-68
2021/11/17 09:41:59;;;;;;;30.03;16.30;;;;;;;7.37;79.05;101305.13;5040823;28;20420;-67
2021/11/17 09:44:29;;;;;;;22.93;15.17;;;;;;;7.35;79.67;101302.50;5043145;28;20396;-66
2021/11/17 09:46:56;;;;;;;25.73;15.90;;;;;;;7.29;79.42;101309.19;5042639;28;20166;-66
2021/11/17 09:49:27;;;;;;;27.47;15.67;;;;;;;7.33;79.70;101314.50;5042117;28;20428;-66
2021/11/17 09:52:12;;;;;;;25.53;16.20;;;;;;;7.02;80.40;101315.22;5050232;28;20846;-67
2021/11/17 09:54:45;;;;;;;27.27;15.97;;;;;;;6.86;81.65;101313.81;5061091;28;20474;-66
2021/11/17 09:57:15;;;;;;;26.67;15.27;;;;;;;7.01;80.81;101316.94;5059964;28;20438;-65
2021/11/17 10:00:05;;;;;;;27.70;15.70;;;;;;;7.17;81.10;101313.16;5060833;28;20478;-66
2021/11/17 10:02:37;;;;;;;24.37;15.57;;;;;;;7.21;81.35;101307.25;5060558;28;20479;-66
2021/11/17 10:05:23;;;;;;;26.60;14.33;;;;;;;6.93;82.32;101307.13;5059622;28;20383;-67
2021/11/17 10:08:23;;;;;;;28.17;15.23;;;;;;;7.14;81.88;101302.66;5059603;28;20416;-70
2021/11/17 10:11:56;;;;;;;31.70;20.10;;;;;;;7.24;82.11;101293.50;5059647;28;20450;-68
2021/11/17 10:14:10;;;;;;;23.77;15.03;;;;;;;7.28;81.79;101303.13;5052716;28;20424;-68
2021/11/17 10:16:37;;;;;;;26.63;16.00;;;;;;;7.11;82.43;101288.75;5059362;28;20469;-68
2021/11/17 10:19:26;;;;;;;28.80;17.07;;;;;;;7.19;82.77;101300.25;5059164;28;20394;-69
2021/11/17 10:22:12;;;;;;;30.27;18.00;;;;;;;6.82;83.80;101296.41;5059978;28;20416;-67
2021/11/17 10:24:49;;;;;;;26.80;16.10;;;;;;;7.12;82.94;101301.75;5060041;28;20481;-67
2021/11/17 10:27:24;;;;;;;28.63;16.43;;;;;;;7.12;82.87;101293.06;5059779;28;20459;-67
2021/11/17 10:30:14;;;;;;;28.50;16.50;;;;;;;7.23;82.50;101295.19;5059880;28;20481;-67
2021/11/17 10:32:46;;;;;;;35.10;17.00;;;;;;;7.03;83.53;101299.72;5059441;28;20490;-68
2021/11/17 10:35:25;;;;;;;32.83;16.80;;;;;;;6.99;83.95;101291.81;5060052;28;20467;-64
2021/11/17 10:38:22;;;;;;;28.07;15.73;;;;;;;6.85;84.09;101289.63;5059724;28;20435;-65
2021/11/17 10:40:55;;;;;;;28.63;15.90;;;;;;;6.93;83.61;101281.22;5059791;28;20453;-66
2021/11/17 10:43:22;;;;;;;27.17;15.90;;;;;;;7.10;83.04;101281.78;5059546;28;20424;-65
2021/11/17 10:45:56;;;;;;;27.27;16.40;;;;;;;7.34;83.21;101285.16;5059686;28;20415;-66
2021/11/17 10:48:29;;;;;;;24.37;15.37;;;;;;;7.40;82.76;101285.34;5059314;28;20423;-68
2021/11/17 10:51:05;;;;;;;28.10;15.60;;;;;;;7.25;83.15;101284.84;5058299;28;20425;-67
2021/11/17 10:53:32;;;;;;;28.77;17.07;;;;;;;7.00;83.96;101285.78;5039373;28;20453;-67
2021/11/17 10:56:02;;;;;;;28.20;16.27;;;;;;;7.31;83.62;101299.75;5039813;28;20727;-67
2021/11/17 10:58:31;;;;;;;27.33;16.17;;;;;;;7.39;83.83;101293.09;5040059;28;20447;-66
2021/11/17 11:01:03;;;;;;;27.93;15.47;;;;;;;6.87;85.08;101305.22;5039170;28;20708;-67
2021/11/17 11:03:31;;;;;;;25.97;14.73;;;;;;;6.78;86.53;101289.34;5039386;28;20427;-68
2021/11/17 11:06:28;;;;;;;31.07;16.33;;;;;;;7.05;85.98;101298.06;5021812;28;20433;-69
2021/11/17 11:09:05;;;;;;;25.83;15.13;;;;;;;7.30;85.02;101293.66;5039222;28;20444;-69
2021/11/17 11:11:34;;;;;;;32.93;16.33;;;;;;;7.22;85.60;101305.50;5039031;28;20686;-68
2021/11/17 11:14:06;;;;;;;28.00;16.17;;;;;;;7.04;85.98;101306.66;5021662;28;20791;-66
2021/11/17 11:16:54;;;;;;;30.60;17.23;;;;;;;7.12;85.28;101295.66;5039023;28;20414;-68
2021/11/17 11:19:19;;;;;;;32.63;17.30;;;;;;;7.14;86.11;101301.78;5039102;28;20514;-67
2021/11/17 11:21:44;;;;;;;31.17;18.47;;;;;;;7.01;86.68;101303.09;5038586;28;20680;-65
2021/11/17 11:24:26;;;;;;;30.30;17.50;;;;;;;7.33;85.55;101309.31;5039227;28;20232;-65
2021/11/17 11:26:57;;;;;;;32.97;17.77;;;;;;;7.56;85.44;101306.56;5038847;28;20261;-66
2021/11/17 11:29:24;;;;;;;34.93;18.97;;;;;;;7.84;84.07;101297.91;5038416;28;20681;-66
2021/11/17 11:31:51;;;;;;;38.00;20.80;;;;;;;7.66;84.60;101293.06;5021717;28;20391;-67
2021/11/17 11:34:40;;;;;;;33.07;19.60;;;;;;;7.59;85.12;101285.94;5038740;28;20478;-66
2021/11/17 11:37:23;;;;;;;35.23;22.03;;;;;;;7.91;84.69;101288.59;5038616;28;20424;-67
2021/11/17 11:39:50;;;;;;;40.60;21.97;;;;;;;7.81;85.10;101289.19;5038437;28;20856;-69
2021/11/17 11:42:16;;;;;;;37.60;21.60;;;;;;;7.76;85.36;101279.50;5039918;28;20535;-66
2021/11/17 11:44:45;;;;;;;46.73;23.60;;;;;;;7.80;85.12;101280.50;5039565;28;20788;-66
2021/11/17 11:47:10;;;;;;;44.00;24.00;;;;;;;7.92;85.19;101286.03;5040577;28;20171;-67
2021/11/17 11:49:46;;;;;;;47.60;24.90;;;;;;;7.85;85.49;101272.88;5038448;28;20435;-67
2021/11/17 11:52:32;;;;;;;46.57;25.50;;;;;;;7.97;84.99;101264.53;5038112;28;20506;-66
2021/11/17 11:55:00;;;;;;;42.40;24.20;;;;;;;7.80;86.05;101267.50;5037946;28;20465;-68
2021/11/17 11:57:51;;;;;;;47.00;25.53;;;;;;;7.96;85.73;101261.06;5037870;28;20433;-67
2021/11/17 12:00:21;;;;;;;44.93;23.97;;;;;;;7.68;86.17;101255.06;5038082;28;20453;-71
2021/11/17 12:02:55;;;;;;;46.77;26.20;;;;;;;7.83;86.06;101265.00;5037929;28;20428;-71
2021/11/17 12:05:38;;;;;;;47.47;26.37;;;;;;;7.87;85.55;101266.84;5038067;28;20854;-71
2021/11/17 12:08:19;;;;;;;49.37;25.80;;;;;;;8.03;86.28;101257.78;5038024;28;20778;-66
2021/11/17 12:10:57;;;;;;;50.70;27.23;;;;;;;8.11;85.07;101254.56;5038227;28;20403;-67
2021/11/17 12:13:24;;;;;;;47.90;27.40;;;;;;;8.09;85.32;101246.69;5021811;28;20801;-67
2021/11/17 12:16:06;;;;;;;45.60;25.17;;;;;;;8.32;84.45;101249.94;5038200;28;20450;-68
2021/11/17 12:18:48;;;;;;;43.27;26.33;;;;;;;8.57;83.63;101242.81;5038252;28;20716;-67
2021/11/17 12:21:27;;;;;;;55.53;27.80;;;;;;;8.18;84.51;101235.69;5037994;28;20774;-68
2021/11/17 12:24:04;;;;;;;49.77;27.90;;;;;;;8.31;84.70;101235.19;5037946;28;20399;-68
2021/11/17 12:26:30;;;;;;;51.10;27.10;;;;;;;8.50;84.14;101230.53;5038135;28;20416;-67
2021/11/17 12:29:26;;;;;;;40.07;24.80;;;;;;;8.50;83.59;101227.94;5020716;28;20409;-67
2021/11/17 12:32:03;;;;;;;54.83;26.77;;;;;;;8.62;83.58;101228.25;5004398;28;20198;-67
2021/11/17 12:34:34;;;;;;;46.70;27.70;;;;;;;8.50;83.46;101233.13;5037847;28;20649;-67
2021/11/17 12:37:10;;;;;;;50.03;27.60;;;;;;;8.66;83.55;101232.69;5037855;28;20431;-68
2021/11/17 12:39:53;;;;;;;42.83;26.43;;;;;;;8.71;83.29;101225.88;5037892;28;20452;-67
2021/11/17 12:42:26;;;;;;;48.50;25.67;;;;;;;8.57;83.38;101235.91;5041019;28;20408;-68
2021/11/17 12:44:52;;;;;;;39.83;25.57;;;;;;;8.64;84.00;101229.13;5042115;28;20416;-68
2021/11/17 12:47:24;;;;;;;38.13;22.93;;;;;;;8.77;83.43;101239.00;5042076;28;20890;-67
2021/11/17 12:50:08;;;;;;;36.70;24.27;;;;;;;8.81;83.14;101244.28;5024906;28;20175;-67
2021/11/17 12:52:49;;;;;;;39.30;23.83;;;;;;;9.06;82.79;101245.75;5043677;28;20467;-68
2021/11/17 12:55:23;;;;;;;43.23;24.30;;;;;;;8.65;84.08;101246.50;5024794;28;20487;-72
2021/11/17 12:57:53;;;;;;;41.80;24.00;;;;;;;8.95;83.60;101245.50;5041779;28;20432;-67
2021/11/17 13:00:19;;;;;;;42.60;25.50;;;;;;;8.86;83.52;101259.19;5041602;28;20435;-67
2021/11/17 13:02:57;;;;;;;39.30;22.93;;;;;;;8.87;83.07;101271.31;5041336;28;20462;-67
2021/11/17 13:05:26;;;;;;;41.17;24.57;;;;;;;8.79;84.31;101259.84;5024295;28;20173;-67
2021/11/17 13:08:03;;;;;;;31.87;21.67;;;;;;;8.75;83.64;101273.59;5024244;28;20412;-67
2021/11/17 13:10:28;;;;;;;32.23;21.90;;;;;;;8.97;83.27;101256.84;5024323;28;20516;-67
2021/11/17 13:13:40;;;;;;;30.03;20.03;;;;;;;8.88;82.92;101254.00;5041513;28;20498;-67
2021/11/17 13:16:11;;;;;;;29.10;19.60;;;;;;;8.73;83.38;101270.97;5033881;28;20589;-67
2021/11/17 13:18:36;;;;;;;31.57;19.80;;;;;;;8.70;83.53;101267.41;5024326;28;20474;-68
2021/11/17 13:21:11;;;;;;;31.63;21.10;;;;;;;8.97;82.02;101262.03;5041466;28;20443;-69
2021/11/17 13:24:04;;;;;;;31.07;20.60;;;;;;;8.96;82.46;101259.38;5039199;28;20428;-67
2021/11/17 13:26:36;;;;;;;33.60;19.03;;;;;;;9.11;81.88;101262.38;5041247;28;20403;-66
2021/11/17 13:29:22;;;;;;;32.73;21.03;;;;;;;9.05;82.47;101265.72;5040928;28;20391;-67
2021/11/17 13:31:53;;;;;;;37.63;23.07;;;;;;;9.09;82.11;101264.94;5040953;28;20390;-68
2021/11/17 13:34:48;;;;;;;40.77;22.67;;;;;;;9.07;82.64;101265.75;5040882;28;20399;-67
2021/11/17 13:37:36;;;;;;;34.03;22.87;;;;;;;8.88;83.11;101262.69;5024011;28;20400;-68
2021/11/17 13:40:17;;;;;;;41.60;21.43;;;;;;;9.27;81.40;101267.09;5041307;28;20431;-67
2021/11/17 13:42:44;;;;;;;36.20;20.73;;;;;;;8.84;83.21;101278.19;5003924;28;20439;-68
2021/11/17 13:45:16;;;;;;;35.40;22.70;;;;;;;8.87;83.55;101280.84;5004068;28;20537;-68
2021/11/17 13:47:44;;;;;;;36.67;22.33;;;;;;;9.06;83.73;101274.38;5021280;28;20449;-68
2021/11/17 13:50:11;;;;;;;36.87;21.60;;;;;;;8.81;83.37;101288.47;5021480;28;20421;-67
2021/11/17 13:52:40;;;;;;;34.70;22.90;;;;;;;9.26;82.61;101277.47;5021686;28;20440;-68
2021/11/17 13:55:09;;;;;;;36.77;22.80;;;;;;;9.31;81.96;101282.75;5022405;28;20786;-67
2021/11/17 13:57:34;;;;;;;35.40;22.53;;;;;;;9.51;81.31;101281.53;5024794;28;20384;-67
2021/11/17 14:00:00;;;;;;;34.50;23.27;;;;;;;9.69;79.70;101286.25;5040632;28;20573;-66
2021/11/17 14:02:25;;;;;;;37.23;23.30;;;;;;;9.85;79.47;101281.38;5040822;28;20166;-65
2021/11/17 14:04:51;;;;;;;42.63;24.17;;;;;;;9.54;80.59;101289.38;5040631;28;20466;-65
2021/11/17 14:07:19;;;;;;;27.40;15.63;;;;;;;11.14;80.09;101282.06;5040646;28;20598;-64
2021/11/17 14:09:45;;;;;;;35.87;22.07;;;;;;;11.54;77.32;101285.25;5024082;28;20513;-63
2021/11/17 14:12:11;;;;;;;27.77;19.90;;;;;;;11.40;77.08;101300.72;5023228;28;20400;-63
2021/11/17 14:14:37;;;;;;;29.33;16.20;;;;;;;12.92;70.21;101288.66;5022998;28;20442;-63
2021/11/17 14:17:04;;;;;;;30.97;19.80;;;;;;;11.18;72.67;101294.31;5023472;28;20668;-69
2021/11/17 14:19:30;;;;;;;28.70;19.60;;;;;;;9.88;78.16;101299.69;5023166;28;20233;-68
2021/11/17 14:21:55;;;;;;;32.00;19.63;;;;;;;9.88;78.78;101300.53;5040428;28;20444;-65